createdAt,value
2023-04-19T00:00:14.090Z,32.23
2023-04-19T00:01:14.092Z,32.23
2023-04-19T00:02:14.168Z,32.21
2023-04-19T00:03:14.185Z,32.21
2023-04-19T00:04:14.310Z,32.19
2023-04-19T00:05:14.183Z,32.24
2023-04-19T00:06:14.101Z,32.25
2023-04-19T00:07:14.110Z,32.23
2023-04-19T00:08:14.134Z,32.19
2023-04-19T00:09:14.138Z,32.21
2023-04-19T00:10:14.176Z,32.22
2023-04-19T00:11:14.189Z,32.22
2023-04-19T00:12:14.189Z,32.22
2023-04-19T00:13:14.282Z,32.29
2023-04-19T00:14:14.707Z,32.26
2023-04-19T00:15:14.249Z,32.22
2023-04-19T00:16:14.278Z,32.22
2023-04-19T00:17:14.264Z,32.21
2023-04-19T00:18:14.296Z,32.26
2023-04-19T00:19:14.301Z,32.23
2023-04-19T00:20:14.321Z,32.26
2023-04-19T00:21:14.341Z,32.23
2023-04-19T00:22:14.367Z,32.20
2023-04-19T00:23:14.380Z,32.23
2023-04-19T00:24:14.626Z,32.22
2023-04-19T00:25:14.413Z,32.24
2023-04-19T00:26:14.433Z,32.22
2023-04-19T00:27:14.443Z,32.26
2023-04-19T00:28:14.460Z,32.30
2023-04-19T00:29:14.591Z,32.26
2023-04-19T00:30:14.522Z,32.25
2023-04-19T00:31:14.589Z,32.27
2023-04-19T00:32:14.528Z,32.30
2023-04-19T00:33:14.702Z,32.26
2023-04-19T00:34:14.773Z,32.23
2023-04-19T00:35:14.592Z,32.26
2023-04-19T00:36:14.601Z,32.23
2023-04-19T00:37:14.621Z,32.29
2023-04-19T00:38:14.647Z,32.23
2023-04-19T00:39:14.659Z,32.20
2023-04-19T00:40:14.680Z,32.26
2023-04-19T00:41:14.692Z,32.20
2023-04-19T00:42:14.710Z,32.26
2023-04-19T00:43:14.729Z,32.26
2023-04-19T00:44:15.006Z,32.23
2023-04-19T00:45:14.922Z,32.24
2023-04-19T00:46:14.857Z,32.26
2023-04-19T00:47:14.791Z,32.22
2023-04-19T00:48:14.817Z,32.20
2023-04-19T00:49:14.832Z,32.26
2023-04-19T00:50:14.864Z,32.24
2023-04-19T00:51:14.873Z,32.27
2023-04-19T00:52:14.887Z,32.24
2023-04-19T00:53:14.909Z,32.27
2023-04-19T00:54:15.202Z,32.26
2023-04-19T00:55:14.939Z,32.24
2023-04-19T00:56:14.958Z,32.24
2023-04-19T00:57:14.999Z,32.22
2023-04-19T00:58:15.019Z,32.23
2023-04-19T00:59:15.032Z,32.23
2023-04-19T01:00:15.063Z,32.26
2023-04-19T01:01:15.114Z,32.26
2023-04-19T01:02:15.229Z,32.26
2023-04-19T01:03:15.201Z,32.27
2023-04-19T01:04:15.617Z,32.24
2023-04-19T01:05:15.188Z,32.27
2023-04-19T01:06:15.194Z,32.26
2023-04-19T01:07:15.214Z,32.19
2023-04-19T01:08:15.240Z,32.24
2023-04-19T01:09:15.266Z,32.22
2023-04-19T01:10:15.292Z,32.24
2023-04-19T01:11:15.306Z,32.22
2023-04-19T01:12:15.338Z,32.23
2023-04-19T01:13:15.369Z,32.20
2023-04-19T01:14:15.816Z,32.26
2023-04-19T01:15:15.411Z,32.24
2023-04-19T01:16:15.488Z,32.20
2023-04-19T01:17:15.506Z,32.19
2023-04-19T01:18:15.497Z,32.24
2023-04-19T01:19:15.532Z,32.20
2023-04-19T01:20:15.598Z,32.22
2023-04-19T01:21:15.595Z,32.22
2023-04-19T01:22:15.624Z,32.22
2023-04-19T01:23:15.646Z,32.20
2023-04-19T01:24:15.892Z,32.20
2023-04-19T01:25:15.747Z,32.18
2023-04-19T01:26:15.730Z,32.20
2023-04-19T01:27:15.775Z,32.23
2023-04-19T01:28:15.802Z,32.19
2023-04-19T01:29:15.814Z,32.19
2023-04-19T01:30:15.811Z,32.19
2023-04-19T01:31:15.870Z,32.23
2023-04-19T01:32:15.869Z,32.19
2023-04-19T01:33:15.931Z,32.22
2023-04-19T01:34:16.157Z,32.20
2023-04-19T01:35:15.970Z,32.22
2023-04-19T01:36:15.993Z,32.17
2023-04-19T01:37:16.031Z,32.19
2023-04-19T01:38:16.047Z,32.19
2023-04-19T01:39:16.093Z,32.20
2023-04-19T01:40:16.095Z,32.19
2023-04-19T01:41:16.138Z,32.20
2023-04-19T01:42:16.184Z,32.20
2023-04-19T01:43:16.190Z,32.17
2023-04-19T01:44:16.551Z,32.22
2023-04-19T01:45:16.234Z,32.17
2023-04-19T01:46:16.340Z,32.20
2023-04-19T01:47:16.362Z,32.20
2023-04-19T01:48:16.352Z,32.17
2023-04-19T01:49:16.372Z,32.19
2023-04-19T01:50:16.371Z,32.19
2023-04-19T01:51:16.396Z,32.22
2023-04-19T01:52:16.423Z,32.20
2023-04-19T01:53:16.684Z,32.21
2023-04-19T01:54:16.739Z,32.17
2023-04-19T01:55:16.502Z,32.19
2023-04-19T01:56:16.530Z,32.23
2023-04-19T01:57:16.673Z,32.19
2023-04-19T01:58:16.584Z,32.14
2023-04-19T01:59:16.613Z,32.17
2023-04-19T02:00:16.641Z,32.19
2023-04-19T02:01:16.696Z,32.23
2023-04-19T02:02:16.768Z,32.19
2023-04-19T02:03:17.009Z,32.19
2023-04-19T02:04:17.040Z,32.23
2023-04-19T02:05:16.807Z,32.20
2023-04-19T02:06:16.822Z,32.23
2023-04-19T02:07:16.840Z,32.21
2023-04-19T02:08:17.686Z,32.14
2023-04-19T02:09:16.909Z,32.23
2023-04-19T02:10:16.925Z,32.24
2023-04-19T02:11:16.946Z,32.19
2023-04-19T02:12:16.973Z,32.19
2023-04-19T02:13:17.000Z,32.15
2023-04-19T02:14:17.337Z,32.19
2023-04-19T02:15:17.056Z,32.17
2023-04-19T02:16:17.125Z,32.15
2023-04-19T02:17:17.115Z,32.20
2023-04-19T02:18:17.138Z,32.15
2023-04-19T02:19:17.161Z,32.15
2023-04-19T02:20:17.207Z,32.21
2023-04-19T02:21:17.246Z,32.15
2023-04-19T02:22:17.236Z,32.19
2023-04-19T02:23:17.256Z,32.20
2023-04-19T02:24:17.564Z,32.20
2023-04-19T02:25:17.306Z,32.20
2023-04-19T02:26:17.349Z,32.14
2023-04-19T02:27:17.367Z,32.20
2023-04-19T02:28:17.388Z,32.19
2023-04-19T02:29:17.419Z,32.19
2023-04-19T02:30:17.448Z,32.21
2023-04-19T02:31:17.506Z,32.19
2023-04-19T02:32:17.504Z,32.19
2023-04-19T02:33:17.537Z,32.19
2023-04-19T02:34:17.937Z,32.19
2023-04-19T02:35:17.592Z,32.23
2023-04-19T02:36:17.610Z,32.17
2023-04-19T02:37:17.701Z,32.17
2023-04-19T02:38:17.669Z,32.17
2023-04-19T02:39:18.118Z,32.15
2023-04-19T02:40:17.719Z,32.20
2023-04-19T02:41:17.744Z,32.19
2023-04-19T02:42:17.771Z,32.17
2023-04-19T02:43:17.787Z,32.13
2023-04-19T02:44:18.012Z,32.20
2023-04-19T02:45:17.844Z,32.21
2023-04-19T02:46:17.877Z,32.19
2023-04-19T02:47:17.891Z,32.17
2023-04-19T02:48:17.913Z,32.14
2023-04-19T02:49:17.930Z,32.14
2023-04-19T02:50:17.962Z,32.15
2023-04-19T02:51:17.991Z,32.16
2023-04-19T02:52:18.022Z,32.17
2023-04-19T02:53:18.062Z,32.14
2023-04-19T02:54:18.057Z,32.19
2023-04-19T02:55:18.108Z,32.15
2023-04-19T02:56:18.124Z,32.19
2023-04-19T02:57:18.161Z,32.10
2023-04-19T02:58:18.178Z,32.17
2023-04-19T02:59:18.211Z,32.15
2023-04-19T03:00:18.243Z,32.14
2023-04-19T03:01:18.283Z,32.14
2023-04-19T03:02:18.318Z,32.17
2023-04-19T03:03:18.526Z,32.14
2023-04-19T03:04:18.568Z,32.17
2023-04-19T03:05:18.376Z,32.15
2023-04-19T03:06:18.402Z,32.11
2023-04-19T03:07:18.417Z,32.17
2023-04-19T03:08:18.460Z,32.14
2023-04-19T03:09:18.506Z,32.15
2023-04-19T03:10:18.526Z,32.13
2023-04-19T03:11:18.542Z,32.14
2023-04-19T03:12:18.565Z,32.11
2023-04-19T03:13:18.589Z,32.14
2023-04-19T03:14:18.624Z,32.15
2023-04-19T03:15:18.649Z,32.15
2023-04-19T03:16:18.707Z,32.17
2023-04-19T03:17:18.711Z,32.14
2023-04-19T03:18:19.123Z,32.13
2023-04-19T03:19:18.769Z,32.13
2023-04-19T03:20:18.799Z,32.13
2023-04-19T03:21:18.831Z,32.18
2023-04-19T03:22:18.859Z,32.13
2023-04-19T03:23:18.894Z,32.11
2023-04-19T03:24:18.926Z,32.14
2023-04-19T03:25:18.981Z,32.10
2023-04-19T03:26:18.980Z,32.04
2023-04-19T03:27:19.018Z,32.07
2023-04-19T03:28:19.047Z,32.06
2023-04-19T03:29:19.063Z,32.13
2023-04-19T03:30:19.084Z,32.04
2023-04-19T03:31:19.138Z,32.05
2023-04-19T03:32:19.137Z,32.03
2023-04-19T03:33:19.159Z,32.02
2023-04-19T03:34:19.184Z,32.04
2023-04-19T03:35:19.190Z,32.01
2023-04-19T03:36:19.213Z,31.97
2023-04-19T03:37:19.232Z,31.99
2023-04-19T03:38:19.240Z,31.99
2023-04-19T03:39:19.274Z,32.01
2023-04-19T03:40:19.277Z,32.05
2023-04-19T03:41:19.316Z,31.98
2023-04-19T03:42:19.308Z,32.02
2023-04-19T03:43:19.315Z,31.98
2023-04-19T03:44:19.324Z,31.99
2023-04-19T03:45:19.345Z,32.02
2023-04-19T03:46:19.396Z,32.04
2023-04-19T03:47:19.382Z,32.04
2023-04-19T03:48:19.376Z,32.05
2023-04-19T03:49:19.398Z,32.05
2023-04-19T03:50:19.397Z,32.04
2023-04-19T03:51:19.836Z,32.05
2023-04-19T03:52:19.411Z,32.05
2023-04-19T03:53:19.415Z,32.02
2023-04-19T03:54:19.427Z,32.04
2023-04-19T03:55:19.429Z,31.98
2023-04-19T03:56:19.434Z,32.06
2023-04-19T03:57:19.480Z,32.04
2023-04-19T03:58:19.456Z,32.06
2023-04-19T03:59:19.455Z,32.03
2023-04-19T04:00:19.456Z,32.06
2023-04-19T04:01:19.466Z,32.06
2023-04-19T04:02:19.641Z,32.08
2023-04-19T04:03:19.658Z,32.08
2023-04-19T04:04:19.939Z,32.05
2023-04-19T04:05:19.512Z,32.08
2023-04-19T04:06:19.490Z,32.08
2023-04-19T04:07:19.491Z,32.05
2023-04-19T04:08:19.502Z,32.05
2023-04-19T04:09:19.505Z,32.04
2023-04-19T04:10:19.514Z,32.06
2023-04-19T04:11:19.510Z,32.08
2023-04-19T04:12:19.537Z,32.08
2023-04-19T04:13:19.589Z,32.08
2023-04-19T04:14:19.513Z,32.08
2023-04-19T04:15:19.505Z,32.06
2023-04-19T04:16:19.553Z,32.05
2023-04-19T04:17:19.548Z,32.08
2023-04-19T04:18:19.496Z,32.09
2023-04-19T04:19:19.491Z,32.06
2023-04-19T04:20:19.484Z,32.08
2023-04-19T04:21:19.504Z,32.06
2023-04-19T04:22:19.500Z,32.08
2023-04-19T04:23:19.476Z,32.09
2023-04-19T04:24:19.467Z,32.09
2023-04-19T04:25:21.179Z,32.04
2023-04-19T04:26:19.430Z,32.06
2023-04-19T04:27:19.419Z,32.04
2023-04-19T04:28:19.386Z,32.02
2023-04-19T04:29:19.420Z,32.04
2023-04-19T04:30:19.349Z,31.98
2023-04-19T04:31:19.364Z,32.08
2023-04-19T04:32:19.325Z,32.05
2023-04-19T04:33:19.286Z,32.03
2023-04-19T04:34:19.279Z,32.01
2023-04-19T04:35:19.253Z,31.98
2023-04-19T04:36:19.259Z,31.98
2023-04-19T04:37:19.221Z,32.05
2023-04-19T04:38:24.516Z,32.03
2023-04-19T04:39:19.168Z,32.05
2023-04-19T04:40:19.508Z,32.08
2023-04-19T04:41:20.384Z,32.07
2023-04-19T04:42:19.104Z,32.04
2023-04-19T04:43:19.081Z,32.04
2023-04-19T04:44:19.058Z,32.10
2023-04-19T04:45:19.165Z,32.03
2023-04-19T04:46:19.116Z,32.05
2023-04-19T04:47:19.063Z,32.12
2023-04-19T04:48:18.973Z,32.09
2023-04-19T04:49:18.951Z,32.05
2023-04-19T04:50:18.929Z,32.05
2023-04-19T04:51:18.919Z,32.11
2023-04-19T04:52:18.884Z,32.06
2023-04-19T04:53:18.883Z,32.11
2023-04-19T04:54:18.851Z,32.09
2023-04-19T04:55:18.826Z,32.11
2023-04-19T04:56:18.827Z,32.06
2023-04-19T04:57:18.795Z,32.07
2023-04-19T04:58:20.472Z,32.04
2023-04-19T04:59:18.743Z,32.11
2023-04-19T05:00:18.725Z,32.09
2023-04-19T05:01:18.765Z,32.09
2023-04-19T05:02:18.770Z,32.08
2023-04-19T05:03:18.692Z,32.11
2023-04-19T05:04:19.677Z,32.13
2023-04-19T05:05:18.620Z,32.15
2023-04-19T05:06:18.608Z,32.18
2023-04-19T05:07:18.598Z,32.14
2023-04-19T05:08:18.581Z,32.20
2023-04-19T05:09:18.553Z,32.17
2023-04-19T05:10:18.538Z,32.18
2023-04-19T05:11:18.513Z,32.12
2023-04-19T05:12:18.507Z,32.06
2023-04-19T05:13:18.475Z,32.05
2023-04-19T05:14:18.445Z,32.03
2023-04-19T05:15:18.424Z,32.00
2023-04-19T05:16:18.509Z,31.98
2023-04-19T05:17:18.403Z,32.01
2023-04-19T05:18:18.376Z,31.93
2023-04-19T05:19:18.340Z,31.92
2023-04-19T05:20:18.325Z,31.91
2023-04-19T05:21:18.309Z,31.89
2023-04-19T05:22:18.294Z,31.98
2023-04-19T05:23:18.268Z,32.08
2023-04-19T05:24:18.493Z,32.20
2023-04-19T05:25:18.227Z,32.25
2023-04-19T05:26:18.247Z,32.34
2023-04-19T05:27:18.179Z,32.35
2023-04-19T05:28:18.159Z,32.36
2023-04-19T05:29:18.138Z,32.44
2023-04-19T05:30:17.132Z,32.49
2023-04-19T05:31:18.135Z,32.59
2023-04-19T05:32:18.111Z,32.63
2023-04-19T05:33:18.129Z,32.64
2023-04-19T05:34:21.252Z,32.66
2023-04-19T05:35:18.258Z,32.73
2023-04-19T05:36:18.014Z,32.71
2023-04-19T05:37:17.982Z,32.78
2023-04-19T05:38:17.949Z,32.80
2023-04-19T05:39:17.935Z,32.83
2023-04-19T05:40:17.919Z,32.85
2023-04-19T05:41:17.901Z,32.82
2023-04-19T05:42:17.877Z,32.80
2023-04-19T05:43:17.872Z,32.83
2023-04-19T05:44:18.084Z,32.90
2023-04-19T05:45:18.262Z,32.86
2023-04-19T05:46:17.927Z,32.89
2023-04-19T05:47:18.300Z,32.95
2023-04-19T05:48:17.770Z,32.99
2023-04-19T05:49:17.807Z,32.90
2023-04-19T05:50:17.740Z,33.02
2023-04-19T05:51:17.731Z,33.08
2023-04-19T05:52:17.786Z,33.17
2023-04-19T05:53:17.772Z,33.33
2023-04-19T05:54:17.930Z,33.26
2023-04-19T05:55:17.697Z,33.52
2023-04-19T05:56:17.647Z,33.52
2023-04-19T05:57:17.632Z,33.69
2023-04-19T05:58:17.799Z,34.14
2023-04-19T05:59:17.817Z,34.49
2023-04-19T06:00:18.777Z,34.49
2023-04-19T06:01:17.865Z,34.70
2023-04-19T06:02:24.980Z,34.83
2023-04-19T06:03:17.612Z,34.83
2023-04-19T06:04:21.651Z,34.97
2023-04-19T06:05:17.656Z,34.98
2023-04-19T06:06:17.703Z,35.36
2023-04-19T06:07:31.047Z,35.08
2023-04-19T06:08:24.939Z,35.32
2023-04-19T06:09:17.520Z,35.28
2023-04-19T06:10:17.543Z,35.26
2023-04-19T06:11:34.815Z,35.23
2023-04-19T06:12:17.532Z,35.49
2023-04-19T06:13:17.469Z,35.57
2023-04-19T06:14:18.104Z,35.43
2023-04-19T06:15:17.384Z,35.39
2023-04-19T06:16:17.376Z,35.74
2023-04-19T06:17:17.437Z,35.73
2023-04-19T06:18:19.208Z,35.49
2023-04-19T06:19:17.776Z,35.53
2023-04-19T06:20:20.512Z,35.84
2023-04-19T06:21:17.263Z,35.57
2023-04-19T06:22:17.254Z,35.72
2023-04-19T06:23:18.215Z,35.66
2023-04-19T06:24:17.343Z,35.57
2023-04-19T06:25:17.282Z,35.57
2023-04-19T06:26:17.140Z,35.60
2023-04-19T06:27:17.102Z,35.63
2023-04-19T06:28:17.105Z,35.41
2023-04-19T06:29:17.127Z,35.66
2023-04-19T06:30:17.910Z,35.50
2023-04-19T06:31:17.348Z,35.56
2023-04-19T06:32:17.246Z,35.86
2023-04-19T06:33:17.559Z,35.50
2023-04-19T06:34:17.552Z,35.52
2023-04-19T06:35:17.286Z,35.47
2023-04-19T06:36:17.419Z,35.38
2023-04-19T06:37:18.362Z,35.47
2023-04-19T06:38:17.399Z,35.48
2023-04-19T06:39:17.820Z,35.34
2023-04-19T06:40:17.455Z,35.27
2023-04-19T06:41:17.485Z,35.25
2023-04-19T06:42:17.473Z,35.55
2023-04-19T06:43:18.327Z,35.52
2023-04-19T06:44:18.600Z,35.57
2023-04-19T06:45:17.814Z,35.39
2023-04-19T06:46:17.644Z,35.46
2023-04-19T06:47:17.652Z,35.32
2023-04-19T06:48:17.665Z,35.61
2023-04-19T06:49:20.929Z,35.86
2023-04-19T06:50:17.810Z,35.71
2023-04-19T06:51:19.112Z,35.68
2023-04-19T06:52:17.687Z,35.64
2023-04-19T06:53:17.651Z,35.52
2023-04-19T06:54:18.476Z,35.93
2023-04-19T06:55:17.800Z,35.66
2023-04-19T06:56:17.779Z,35.58
2023-04-19T06:57:17.822Z,35.50
2023-04-19T06:58:17.863Z,35.52
2023-04-19T06:59:17.916Z,35.57
2023-04-19T07:00:18.294Z,35.44
2023-04-19T07:01:17.994Z,35.39
2023-04-19T07:02:18.011Z,35.29
2023-04-19T07:03:18.139Z,35.23
2023-04-19T07:04:18.674Z,35.32
2023-04-19T07:05:18.012Z,35.12
2023-04-19T07:06:18.301Z,34.81
2023-04-19T07:07:18.839Z,34.99
2023-04-19T07:08:18.305Z,34.99
2023-04-19T07:09:18.174Z,34.92
2023-04-19T07:10:18.060Z,34.84
2023-04-19T07:11:18.889Z,34.87
2023-04-19T07:12:18.049Z,34.82
2023-04-19T07:13:18.058Z,34.82
2023-04-19T07:14:18.355Z,34.73
2023-04-19T07:15:18.002Z,34.75
2023-04-19T07:16:18.340Z,34.78
2023-04-19T07:17:17.980Z,34.72
2023-04-19T07:18:17.950Z,34.85
2023-04-19T07:19:17.961Z,34.88
2023-04-19T07:20:18.828Z,34.86
2023-04-19T07:21:18.786Z,34.94
2023-04-19T07:22:17.876Z,34.86
2023-04-19T07:23:18.325Z,34.80
2023-04-19T07:24:18.142Z,34.72
2023-04-19T07:25:17.823Z,34.64
2023-04-19T07:26:17.796Z,34.54
2023-04-19T07:27:17.819Z,34.62
2023-04-19T07:28:17.796Z,34.59
2023-04-19T07:29:17.746Z,34.51
2023-04-19T07:30:17.700Z,34.56
2023-04-19T07:31:17.793Z,34.56
2023-04-19T07:32:17.812Z,34.45
2023-04-19T07:33:17.686Z,34.53
2023-04-19T07:34:18.025Z,34.50
2023-04-19T07:35:17.594Z,34.46
2023-04-19T07:36:17.573Z,34.48
2023-04-19T07:37:24.939Z,34.55
2023-04-19T07:38:17.534Z,34.52
2023-04-19T07:39:17.812Z,34.41
2023-04-19T07:40:17.642Z,34.40
2023-04-19T07:41:17.477Z,34.41
2023-04-19T07:42:17.898Z,34.42
2023-04-19T07:43:17.448Z,34.42
2023-04-19T07:44:18.182Z,34.36
2023-04-19T07:45:17.411Z,34.18
2023-04-19T07:46:17.465Z,34.27
2023-04-19T07:47:17.394Z,34.38
2023-04-19T07:48:18.389Z,34.24
2023-04-19T07:49:17.805Z,34.25
2023-04-19T07:50:17.866Z,34.36
2023-04-19T07:51:17.299Z,34.38
2023-04-19T07:52:17.314Z,34.37
2023-04-19T07:53:17.267Z,34.50
2023-04-19T07:54:17.520Z,34.42
2023-04-19T07:55:17.310Z,34.52
2023-04-19T07:56:17.257Z,34.53
2023-04-19T07:57:17.320Z,34.56
2023-04-19T07:58:17.972Z,34.50
2023-04-19T07:59:17.313Z,34.58
2023-04-19T08:00:17.133Z,34.57
2023-04-19T08:01:17.192Z,34.63
2023-04-19T08:02:17.804Z,34.64
2023-04-19T08:03:17.370Z,34.60
2023-04-19T08:04:17.868Z,34.55
2023-04-19T08:05:17.115Z,34.58
2023-04-19T08:06:17.336Z,34.51
2023-04-19T08:07:17.319Z,34.58
2023-04-19T08:08:17.066Z,34.62
2023-04-19T08:09:16.961Z,34.60
2023-04-19T08:10:16.935Z,34.62
2023-04-19T08:11:16.895Z,34.58
2023-04-19T08:12:32.762Z,34.58
2023-04-19T08:13:16.863Z,34.59
2023-04-19T08:14:32.272Z,34.48
2023-04-19T08:15:50.945Z,34.41
2023-04-19T08:16:32.286Z,34.47
2023-04-19T08:17:24.333Z,34.58
2023-04-19T08:18:16.744Z,34.51
2023-04-19T08:19:16.681Z,34.50
2023-04-19T08:20:16.657Z,34.56
2023-04-19T08:21:16.631Z,34.54
2023-04-19T08:22:16.620Z,34.65
2023-04-19T08:23:24.130Z,34.49
2023-04-19T08:24:16.718Z,34.62
2023-04-19T08:25:16.826Z,34.63
2023-04-19T08:26:16.522Z,34.66
2023-04-19T08:27:16.494Z,34.55
2023-04-19T08:28:16.653Z,34.56
2023-04-19T08:29:17.165Z,34.79
2023-04-19T08:30:16.826Z,34.74
2023-04-19T08:31:16.409Z,34.96
2023-04-19T08:32:16.588Z,34.88
2023-04-19T08:33:16.444Z,34.84
2023-04-19T08:34:16.380Z,34.59
2023-04-19T08:35:16.336Z,34.63
2023-04-19T08:36:19.497Z,34.56
2023-04-19T08:37:16.297Z,34.51
2023-04-19T08:38:16.287Z,34.38
2023-04-19T08:39:29.029Z,34.27
2023-04-19T08:40:16.328Z,34.34
2023-04-19T08:41:16.198Z,34.44
2023-04-19T08:42:28.811Z,34.44
2023-04-19T08:43:16.333Z,34.24
2023-04-19T08:44:25.348Z,34.33
2023-04-19T08:46:15.093Z,34.37
2023-04-19T08:47:27.276Z,34.33
2023-04-19T08:48:16.118Z,34.30
2023-04-19T08:49:16.249Z,34.40
2023-04-19T08:50:31.106Z,34.17
2023-04-19T08:51:16.331Z,34.14
2023-04-19T08:52:15.929Z,34.32
2023-04-19T08:53:24.685Z,34.38
2023-04-19T08:54:15.895Z,34.30
2023-04-19T08:55:16.330Z,34.30
2023-04-19T08:56:24.348Z,34.38
2023-04-19T08:57:16.274Z,34.32
2023-04-19T08:58:26.921Z,34.25
2023-04-19T08:59:20.595Z,34.30
2023-04-19T09:00:15.864Z,34.27
2023-04-19T09:01:30.478Z,34.44
2023-04-19T09:02:15.842Z,34.50
2023-04-19T09:03:16.030Z,34.56
2023-04-19T09:05:14.824Z,34.45
2023-04-19T09:06:15.742Z,34.39
2023-04-19T09:07:15.833Z,34.35
2023-04-19T09:08:15.587Z,34.21
2023-04-19T09:09:28.403Z,34.27
2023-04-19T09:10:15.561Z,34.35
2023-04-19T09:11:15.528Z,34.38
2023-04-19T09:12:15.857Z,34.38
2023-04-19T09:13:15.481Z,34.29
2023-04-19T09:14:15.923Z,34.39
2023-04-19T09:15:15.841Z,34.37
2023-04-19T09:16:15.460Z,34.35
2023-04-19T09:17:15.394Z,34.33
2023-04-19T09:18:15.410Z,34.45
2023-04-19T09:20:14.341Z,34.49
2023-04-19T09:21:15.318Z,34.55
2023-04-19T09:22:15.333Z,34.49
2023-04-19T09:23:15.271Z,34.40
2023-04-19T09:24:15.250Z,34.48
2023-04-19T09:25:39.103Z,34.25
2023-04-19T09:26:22.667Z,34.44
2023-04-19T09:27:15.176Z,34.50
2023-04-19T09:28:15.138Z,34.40
2023-04-19T09:29:15.413Z,34.46
2023-04-19T09:30:27.991Z,34.63
2023-04-19T09:31:35.383Z,34.46
2023-04-19T09:32:15.145Z,34.22
2023-04-19T09:33:15.129Z,34.41
2023-04-19T09:34:15.222Z,34.35
2023-04-19T09:35:15.346Z,34.46
2023-04-19T09:36:15.342Z,33.68
2023-04-19T09:37:25.033Z,34.49
2023-04-19T09:38:14.951Z,34.71
2023-04-19T09:39:15.603Z,34.84
2023-04-19T09:40:14.887Z,34.90
2023-04-19T09:41:14.857Z,34.94
2023-04-19T09:42:17.499Z,34.94
2023-04-19T09:44:41.831Z,35.14
2023-04-19T09:46:13.880Z,35.23
2023-04-19T09:47:14.731Z,35.16
2023-04-19T09:48:14.754Z,35.38
2023-04-19T09:49:22.988Z,35.40
2023-04-19T09:50:23.764Z,35.48
2023-04-19T09:51:15.140Z,35.51
2023-04-19T09:52:14.655Z,35.44
2023-04-19T09:53:14.588Z,35.61
2023-04-19T09:54:14.561Z,35.61
2023-04-19T09:55:26.940Z,35.71
2023-04-19T09:56:14.511Z,35.69
2023-04-19T09:57:14.482Z,35.69
2023-04-19T09:58:14.760Z,35.62
2023-04-19T09:59:20.886Z,35.65
2023-04-19T10:00:14.394Z,35.69
2023-04-19T10:01:16.326Z,35.59
2023-04-19T10:02:14.464Z,35.76
2023-04-19T10:03:14.366Z,35.76
2023-04-19T10:04:25.857Z,35.78
2023-04-19T10:06:27.159Z,35.76
2023-04-19T10:08:13.269Z,35.78
2023-04-19T10:09:14.556Z,35.86
2023-04-19T10:10:20.445Z,35.78
2023-04-19T10:11:14.354Z,35.72
2023-04-19T10:12:31.235Z,35.81
2023-04-19T10:13:19.647Z,35.66
2023-04-19T10:14:14.463Z,35.69
2023-04-19T10:15:13.982Z,35.48
2023-04-19T10:16:19.451Z,35.52
2023-04-19T10:17:14.350Z,35.60
2023-04-19T10:18:13.915Z,35.52
2023-04-19T10:19:13.987Z,35.64
2023-04-19T10:20:14.048Z,35.67
2023-04-19T10:21:13.858Z,35.64
2023-04-19T10:22:13.765Z,35.57
2023-04-19T10:23:13.733Z,35.59
2023-04-19T10:24:13.729Z,35.55
2023-04-19T10:25:13.673Z,35.49
2023-04-19T10:26:13.863Z,35.59
2023-04-19T10:27:13.653Z,35.59
2023-04-19T10:28:13.670Z,35.54
2023-04-19T10:29:13.816Z,35.37
2023-04-19T10:30:13.877Z,35.62
2023-04-19T10:31:13.505Z,35.49
2023-04-19T10:32:13.634Z,35.57
2023-04-19T10:33:13.534Z,35.61
2023-04-19T10:34:13.599Z,35.62
2023-04-19T10:35:14.664Z,35.49
2023-04-19T10:36:13.921Z,35.32
2023-04-19T10:37:13.725Z,35.41
2023-04-19T10:38:13.780Z,35.26
2023-04-19T10:39:14.016Z,35.42
2023-04-19T10:40:13.919Z,35.51
2023-04-19T10:41:16.947Z,35.49
2023-04-19T10:42:13.872Z,35.34
2023-04-19T10:43:13.845Z,35.38
2023-04-19T10:44:13.821Z,35.29
2023-04-19T10:45:13.807Z,35.28
2023-04-19T10:46:13.847Z,35.28
2023-04-19T10:47:14.673Z,35.16
2023-04-19T10:48:13.869Z,35.28
2023-04-19T10:49:14.057Z,35.23
2023-04-19T10:50:14.371Z,35.25
2023-04-19T10:51:13.985Z,35.21
2023-04-19T10:52:14.117Z,35.11
2023-04-19T10:53:14.316Z,35.12
2023-04-19T10:54:14.096Z,35.20
2023-04-19T10:55:14.130Z,35.19
2023-04-19T10:56:14.376Z,35.12
2023-04-19T10:57:14.196Z,35.20
2023-04-19T10:58:14.331Z,35.00
2023-04-19T10:59:14.295Z,35.19
2023-04-19T11:00:14.315Z,35.24
2023-04-19T11:01:14.391Z,35.14
2023-04-19T11:02:15.693Z,35.15
2023-04-19T11:03:14.549Z,34.97
2023-04-19T11:04:14.597Z,35.02
2023-04-19T11:05:14.501Z,35.01
2023-04-19T11:06:14.499Z,35.05
2023-04-19T11:07:14.877Z,34.79
2023-04-19T11:08:14.673Z,34.94
2023-04-19T11:09:14.816Z,34.95
2023-04-19T11:10:14.632Z,34.95
2023-04-19T11:11:14.662Z,34.97
2023-04-19T11:12:14.689Z,34.98
2023-04-19T11:13:14.725Z,34.94
2023-04-19T11:14:14.757Z,34.96
2023-04-19T11:15:14.789Z,34.95
2023-04-19T11:16:14.909Z,35.01
2023-04-19T11:17:14.941Z,35.66
2023-04-19T11:18:15.421Z,35.42
2023-04-19T11:19:15.292Z,35.20
2023-04-19T11:20:14.975Z,35.08
2023-04-19T11:21:15.009Z,34.94
2023-04-19T11:22:15.056Z,34.91
2023-04-19T11:23:15.084Z,34.97
2023-04-19T11:24:15.162Z,34.96
2023-04-19T11:25:15.166Z,34.99
2023-04-19T11:26:15.201Z,34.92
2023-04-19T11:27:15.251Z,34.95
2023-04-19T11:28:15.288Z,34.93
2023-04-19T11:29:15.495Z,34.91
2023-04-19T11:30:15.420Z,34.84
2023-04-19T11:31:15.443Z,34.88
2023-04-19T11:32:15.465Z,34.88
2023-04-19T11:33:15.500Z,34.79
2023-04-19T11:34:15.944Z,34.88
2023-04-19T11:35:15.580Z,34.82
2023-04-19T11:36:15.615Z,34.88
2023-04-19T11:37:15.645Z,34.93
2023-04-19T11:38:15.689Z,34.93
2023-04-19T11:39:15.742Z,34.89
2023-04-19T11:40:15.794Z,34.85
2023-04-19T11:41:16.290Z,34.81
2023-04-19T11:42:15.906Z,34.83
2023-04-19T11:43:15.885Z,34.81
2023-04-19T11:44:16.260Z,34.77
2023-04-19T11:45:28.799Z,34.73
2023-04-19T11:46:15.970Z,34.69
2023-04-19T11:47:15.886Z,34.64
2023-04-19T11:48:15.995Z,34.62
2023-04-19T11:49:15.833Z,34.59
2023-04-19T11:50:15.820Z,34.62
2023-04-19T11:51:15.785Z,34.63
2023-04-19T11:52:15.774Z,34.59
2023-04-19T11:53:15.905Z,34.54
2023-04-19T11:54:15.933Z,34.57
2023-04-19T11:55:15.694Z,34.58
2023-04-19T11:56:15.931Z,34.53
2023-04-19T11:57:15.624Z,34.50
2023-04-19T11:58:15.598Z,34.53
2023-04-19T11:59:15.566Z,34.47
2023-04-19T12:00:15.545Z,34.55
2023-04-19T12:01:15.554Z,34.51
2023-04-19T12:02:15.505Z,34.52
2023-04-19T12:03:15.699Z,34.48
2023-04-19T12:04:16.049Z,34.48
2023-04-19T12:05:15.560Z,34.43
2023-04-19T12:06:15.409Z,34.46
2023-04-19T12:07:15.403Z,34.47
2023-04-19T12:08:15.331Z,34.48
2023-04-19T12:09:15.305Z,34.48
2023-04-19T12:10:15.289Z,34.44
2023-04-19T12:11:15.451Z,34.43
2023-04-19T12:12:15.379Z,34.44
2023-04-19T12:13:15.200Z,34.49
2023-04-19T12:14:15.524Z,34.57
2023-04-19T12:15:15.138Z,34.52
2023-04-19T12:16:15.138Z,34.55
2023-04-19T12:17:15.402Z,34.97
2023-04-19T12:18:15.091Z,35.09
2023-04-19T12:19:15.198Z,35.01
2023-04-19T12:20:15.003Z,35.11
2023-04-19T12:21:14.995Z,35.03
2023-04-19T12:22:14.962Z,35.24
2023-04-19T12:23:14.923Z,37.71
2023-04-19T12:24:14.896Z,37.62
2023-04-19T12:25:14.875Z,39.31
2023-04-19T12:26:14.849Z,40.22
2023-04-19T12:27:14.828Z,39.44
2023-04-19T12:28:14.876Z,39.98
2023-04-19T12:29:14.015Z,39.81
2023-04-19T12:30:14.754Z,41.44
2023-04-19T12:31:14.732Z,40.44
2023-04-19T12:32:14.939Z,40.03
2023-04-19T12:33:14.717Z,39.92
2023-04-19T12:34:14.914Z,39.56
2023-04-19T12:35:14.643Z,39.47
2023-04-19T12:36:14.617Z,39.19
2023-04-19T12:37:14.600Z,39.32
2023-04-19T12:38:14.581Z,39.24
2023-04-19T12:39:14.750Z,38.97
2023-04-19T12:40:14.519Z,38.69
2023-04-19T12:41:14.517Z,38.67
2023-04-19T12:42:14.469Z,38.30
2023-04-19T12:43:14.451Z,38.09
2023-04-19T12:44:14.750Z,38.07
2023-04-19T12:45:14.405Z,38.15
2023-04-19T12:46:14.438Z,37.75
2023-04-19T12:47:14.357Z,37.58
2023-04-19T12:48:14.335Z,37.46
2023-04-19T12:49:14.615Z,37.39
2023-04-19T12:50:14.283Z,37.21
2023-04-19T12:51:14.425Z,37.23
2023-04-19T12:52:14.258Z,37.03
2023-04-19T12:53:14.228Z,36.95
2023-04-19T12:54:14.205Z,36.74
2023-04-19T12:55:14.191Z,36.67
2023-04-19T12:56:14.164Z,36.68
2023-04-19T12:57:14.412Z,36.65
2023-04-19T12:58:14.109Z,36.62
2023-04-19T12:59:14.241Z,36.52